CYGL

La Grande Rivière Airport

La Grande Rivière, Quebec, Canada
METAR CYGL 180826Z 20010G17KT 10SM -SN DRSN OVC007 M14/M16 A2964 RMK SF8 SLP061
Observed Flight Rules
Dec-18 @ 08:26 UTC (35 minutes ago) Instrument Flight Rules
Wind Visibility Clouds Conditions
200° at 10 knots
 Gusting to 17 knots
10 miles
  • Overcast at 700' AGL
  • Light Snow
  • Low drifting
  • Snow
Temperatures Readings
Current -14°C / 7°F
Dewpoint -16°C / 3°F
Humidity 85%
Altimeter 29.64" Hg
Pressure 1006.1 hPa
Elevation 195
METAR CYGL 180826Z 20010G17KT 10SM -SN DRSN OVC007 M14/M16 A2964 RMK SF8 SLP061
Observed Flight Rules
Dec-18 @ 08:26 UTC
(35 minutes ago)
IFR
Wind Visibility
200° at 10 knots
 Gusting to 17 knots
10 miles
Clouds
  • Overcast at 700' AGL
Conditions
  • Light Snow
  • Low drifting
  • Snow
Temperature Dewpoint
-14°C / 7°F -16°C / 3°F
Humidity Altimeter Pressure
85% 29.64" Hg 1006.1 hPa